sensor_id;sensor_type;location;lat;lon;timestamp;P1;durP1;ratioP1;P2;durP2;ratioP2
8654;SDS011;13500;52.514;13.462;2023-07-29T00:01:23;11.63;;;9.50;;
8654;SDS011;13500;52.514;13.462;2023-07-29T00:03:51;9.63;;;8.83;;
8654;SDS011;13500;52.514;13.462;2023-07-29T00:06:19;10.60;;;9.70;;
8654;SDS011;13500;52.514;13.462;2023-07-29T00:08:49;9.87;;;8.97;;
8654;SDS011;13500;52.514;13.462;2023-07-29T00:11:17;9.53;;;8.73;;
8654;SDS011;13500;52.514;13.462;2023-07-29T00:13:45;10.27;;;9.37;;
8654;SDS011;13500;52.514;13.462;2023-07-29T00:16:13;10.03;;;9.13;;
8654;SDS011;13500;52.514;13.462;2023-07-29T00:18:43;10.53;;;9.50;;
8654;SDS011;13500;52.514;13.462;2023-07-29T00:21:11;9.90;;;8.97;;
8654;SDS011;13500;52.514;13.462;2023-07-29T00:23:39;9.10;;;8.20;;
8654;SDS011;13500;52.514;13.462;2023-07-29T00:26:08;9.87;;;8.77;;
8654;SDS011;13500;52.514;13.462;2023-07-29T00:28:36;9.33;;;8.43;;
8654;SDS011;13500;52.514;13.462;2023-07-29T00:31:04;10.00;;;9.10;;
8654;SDS011;13500;52.514;13.462;2023-07-29T00:33:33;9.50;;;8.60;;
8654;SDS011;13500;52.514;13.462;2023-07-29T00:36:01;10.17;;;9.10;;
8654;SDS011;13500;52.514;13.462;2023-07-29T00:38:29;10.60;;;9.70;;
8654;SDS011;13500;52.514;13.462;2023-07-29T00:40:57;10.57;;;9.67;;
8654;SDS011;13500;52.514;13.462;2023-07-29T00:43:27;11.27;;;10.27;;
8654;SDS011;13500;52.514;13.462;2023-07-29T00:45:55;11.40;;;10.30;;
8654;SDS011;13500;52.514;13.462;2023-07-29T00:48:24;10.50;;;9.50;;
8654;SDS011;13500;52.514;13.462;2023-07-29T00:50:53;10.80;;;9.77;;
8654;SDS011;13500;52.514;13.462;2023-07-29T00:53:22;10.33;;;9.40;;
8654;SDS011;13500;52.514;13.462;2023-07-29T00:55:50;10.50;;;9.50;;
8654;SDS011;13500;52.514;13.462;2023-07-29T00:58:17;10.97;;;9.97;;
8654;SDS011;13500;52.514;13.462;2023-07-29T01:00:47;11.33;;;10.23;;
8654;SDS011;13500;52.514;13.462;2023-07-29T01:03:16;10.87;;;9.87;;
8654;SDS011;13500;52.514;13.462;2023-07-29T01:05:46;10.63;;;9.73;;
8654;SDS011;13500;52.514;13.462;2023-07-29T01:08:20;12.03;;;10.07;;
8654;SDS011;13500;52.514;13.462;2023-07-29T01:10:54;11.37;;;10.37;;
8654;SDS011;13500;52.514;13.462;2023-07-29T01:13:28;12.33;;;11.23;;
8654;SDS011;13500;52.514;13.462;2023-07-29T01:16:01;11.73;;;10.27;;
8654;SDS011;13500;52.514;13.462;2023-07-29T01:18:32;12.67;;;10.23;;
8654;SDS011;13500;52.514;13.462;2023-07-29T01:21:04;10.63;;;9.63;;
8654;SDS011;13500;52.514;13.462;2023-07-29T01:23:34;10.90;;;10.00;;
8654;SDS011;13500;52.514;13.462;2023-07-29T01:26:03;11.70;;;10.63;;
8654;SDS011;13500;52.514;13.462;2023-07-29T01:28:32;10.73;;;9.80;;
8654;SDS011;13500;52.514;13.462;2023-07-29T01:31:01;11.60;;;9.73;;
8654;SDS011;13500;52.514;13.462;2023-07-29T01:33:37;11.20;;;10.07;;
8654;SDS011;13500;52.514;13.462;2023-07-29T01:36:13;11.17;;;10.10;;
8654;SDS011;13500;52.514;13.462;2023-07-29T01:38:44;10.93;;;10.03;;
8654;SDS011;13500;52.514;13.462;2023-07-29T01:41:13;11.37;;;10.37;;
8654;SDS011;13500;52.514;13.462;2023-07-29T01:43:41;11.77;;;10.17;;
8654;SDS011;13500;52.514;13.462;2023-07-29T01:46:10;11.27;;;10.17;;
8654;SDS011;13500;52.514;13.462;2023-07-29T01:48:39;11.30;;;9.90;;
8654;SDS011;13500;52.514;13.462;2023-07-29T01:51:07;10.73;;;9.83;;
8654;SDS011;13500;52.514;13.462;2023-07-29T01:53:36;10.37;;;9.37;;
8654;SDS011;13500;52.514;13.462;2023-07-29T01:56:06;11.23;;;10.23;;
8654;SDS011;13500;52.514;13.462;2023-07-29T01:58:37;11.50;;;10.00;;
8654;SDS011;13500;52.514;13.462;2023-07-29T02:01:05;10.73;;;9.83;;
8654;SDS011;13500;52.514;13.462;2023-07-29T02:03:33;11.60;;;10.40;;
8654;SDS011;13500;52.514;13.462;2023-07-29T02:06:01;11.27;;;10.27;;
8654;SDS011;13500;52.514;13.462;2023-07-29T02:08:29;12.27;;;10.60;;
8654;SDS011;13500;52.514;13.462;2023-07-29T02:10:57;15.00;;;13.57;;
8654;SDS011;13500;52.514;13.462;2023-07-29T02:13:26;11.37;;;10.20;;
8654;SDS011;13500;52.514;13.462;2023-07-29T02:15:54;11.03;;;9.67;;
8654;SDS011;13500;52.514;13.462;2023-07-29T02:18:22;10.70;;;9.70;;
8654;SDS011;13500;52.514;13.462;2023-07-29T02:20:52;10.80;;;9.77;;
8654;SDS011;13500;52.514;13.462;2023-07-29T02:23:19;11.23;;;9.47;;
8654;SDS011;13500;52.514;13.462;2023-07-29T02:25:48;10.10;;;9.10;;
8654;SDS011;13500;52.514;13.462;2023-07-29T02:28:16;11.20;;;9.33;;
8654;SDS011;13500;52.514;13.462;2023-07-29T02:30:45;11.63;;;9.47;;
8654;SDS011;13500;52.514;13.462;2023-07-29T02:33:13;10.13;;;9.17;;
8654;SDS011;13500;52.514;13.462;2023-07-29T02:35:41;11.13;;;10.03;;
8654;SDS011;13500;52.514;13.462;2023-07-29T02:38:09;11.90;;;10.70;;
8654;SDS011;13500;52.514;13.462;2023-07-29T02:40:37;10.13;;;9.23;;
8654;SDS011;13500;52.514;13.462;2023-07-29T02:43:05;11.00;;;10.03;;
8654;SDS011;13500;52.514;13.462;2023-07-29T02:45:33;10.07;;;9.10;;
8654;SDS011;13500;52.514;13.462;2023-07-29T02:48:02;9.97;;;9.00;;
8654;SDS011;13500;52.514;13.462;2023-07-29T02:50:30;9.73;;;8.83;;
8654;SDS011;13500;52.514;13.462;2023-07-29T02:52:58;9.70;;;8.83;;
8654;SDS011;13500;52.514;13.462;2023-07-29T02:55:27;9.57;;;8.67;;
8654;SDS011;13500;52.514;13.462;2023-07-29T02:57:55;10.23;;;9.43;;
8654;SDS011;13500;52.514;13.462;2023-07-29T03:00:24;10.07;;;8.73;;
8654;SDS011;13500;52.514;13.462;2023-07-29T03:02:52;9.00;;;8.10;;
8654;SDS011;13500;52.514;13.462;2023-07-29T03:05:21;10.47;;;8.43;;
8654;SDS011;13500;52.514;13.462;2023-07-29T03:07:49;9.47;;;8.50;;
8654;SDS011;13500;52.514;13.462;2023-07-29T03:10:17;11.40;;;9.40;;
8654;SDS011;13500;52.514;13.462;2023-07-29T03:12:45;10.00;;;9.20;;
8654;SDS011;13500;52.514;13.462;2023-07-29T03:15:14;9.97;;;9.17;;
8654;SDS011;13500;52.514;13.462;2023-07-29T03:17:42;10.20;;;9.30;;
8654;SDS011;13500;52.514;13.462;2023-07-29T03:20:10;9.80;;;8.87;;
8654;SDS011;13500;52.514;13.462;2023-07-29T03:22:40;9.87;;;9.07;;
8654;SDS011;13500;52.514;13.462;2023-07-29T03:25:08;10.10;;;9.20;;
8654;SDS011;13500;52.514;13.462;2023-07-29T03:27:36;10.40;;;9.40;;
8654;SDS011;13500;52.514;13.462;2023-07-29T03:30:04;10.53;;;9.50;;
8654;SDS011;13500;52.514;13.462;2023-07-29T03:32:33;11.63;;;9.00;;
8654;SDS011;13500;52.514;13.462;2023-07-29T03:35:01;9.73;;;8.70;;
8654;SDS011;13500;52.514;13.462;2023-07-29T03:37:30;10.10;;;9.20;;
8654;SDS011;13500;52.514;13.462;2023-07-29T03:39:59;9.53;;;8.67;;
8654;SDS011;13500;52.514;13.462;2023-07-29T03:42:30;9.90;;;9.00;;
8654;SDS011;13500;52.514;13.462;2023-07-29T03:44:58;10.23;;;9.43;;
8654;SDS011;13500;52.514;13.462;2023-07-29T03:47:26;9.77;;;8.77;;
8654;SDS011;13500;52.514;13.462;2023-07-29T03:49:56;9.03;;;8.33;;
8654;SDS011;13500;52.514;13.462;2023-07-29T03:52:24;9.17;;;8.27;;
8654;SDS011;13500;52.514;13.462;2023-07-29T03:54:52;9.40;;;8.50;;
8654;SDS011;13500;52.514;13.462;2023-07-29T03:57:22;8.80;;;8.00;;
8654;SDS011;13500;52.514;13.462;2023-07-29T03:59:50;9.20;;;8.40;;
8654;SDS011;13500;52.514;13.462;2023-07-29T04:02:17;9.80;;;9.00;;
8654;SDS011;13500;52.514;13.462;2023-07-29T04:04:46;9.40;;;8.50;;
8654;SDS011;13500;52.514;13.462;2023-07-29T04:07:15;9.73;;;8.87;;
8654;SDS011;13500;52.514;13.462;2023-07-29T04:09:43;9.57;;;8.63;;
8654;SDS011;13500;52.514;13.462;2023-07-29T04:12:11;10.03;;;9.03;;
8654;SDS011;13500;52.514;13.462;2023-07-29T04:14:40;8.90;;;8.20;;
8654;SDS011;13500;52.514;13.462;2023-07-29T04:17:08;9.70;;;8.70;;
8654;SDS011;13500;52.514;13.462;2023-07-29T04:19:36;8.83;;;7.93;;
8654;SDS011;13500;52.514;13.462;2023-07-29T04:22:04;9.27;;;8.27;;
8654;SDS011;13500;52.514;13.462;2023-07-29T04:24:32;8.90;;;8.10;;
8654;SDS011;13500;52.514;13.462;2023-07-29T04:27:00;9.17;;;8.27;;
8654;SDS011;13500;52.514;13.462;2023-07-29T04:29:28;8.57;;;7.87;;
8654;SDS011;13500;52.514;13.462;2023-07-29T04:31:58;8.33;;;7.53;;
8654;SDS011;13500;52.514;13.462;2023-07-29T04:34:28;8.30;;;7.50;;
8654;SDS011;13500;52.514;13.462;2023-07-29T04:36:56;8.03;;;7.33;;
8654;SDS011;13500;52.514;13.462;2023-07-29T04:39:28;8.60;;;7.90;;
8654;SDS011;13500;52.514;13.462;2023-07-29T04:41:55;7.60;;;6.90;;
8654;SDS011;13500;52.514;13.462;2023-07-29T04:44:24;9.53;;;7.10;;
8654;SDS011;13500;52.514;13.462;2023-07-29T04:46:52;7.83;;;7.13;;
8654;SDS011;13500;52.514;13.462;2023-07-29T04:49:21;7.53;;;6.93;;
8654;SDS011;13500;52.514;13.462;2023-07-29T04:51:49;8.50;;;7.70;;
8654;SDS011;13500;52.514;13.462;2023-07-29T04:54:17;7.80;;;7.10;;
8654;SDS011;13500;52.514;13.462;2023-07-29T04:56:47;9.67;;;7.63;;
8654;SDS011;13500;52.514;13.462;2023-07-29T04:59:16;8.00;;;7.20;;
8654;SDS011;13500;52.514;13.462;2023-07-29T05:01:44;7.70;;;7.00;;
8654;SDS011;13500;52.514;13.462;2023-07-29T05:04:12;7.93;;;7.23;;
8654;SDS011;13500;52.514;13.462;2023-07-29T05:06:42;8.13;;;7.40;;
8654;SDS011;13500;52.514;13.462;2023-07-29T05:09:13;9.07;;;7.57;;
8654;SDS011;13500;52.514;13.462;2023-07-29T05:11:42;7.33;;;6.73;;
8654;SDS011;13500;52.514;13.462;2023-07-29T05:14:12;8.13;;;7.40;;
8654;SDS011;13500;52.514;13.462;2023-07-29T05:16:41;7.53;;;6.93;;
8654;SDS011;13500;52.514;13.462;2023-07-29T05:19:09;7.93;;;7.33;;
8654;SDS011;13500;52.514;13.462;2023-07-29T05:21:38;7.90;;;7.10;;
8654;SDS011;13500;52.514;13.462;2023-07-29T05:24:08;7.97;;;7.20;;
8654;SDS011;13500;52.514;13.462;2023-07-29T05:26:36;8.10;;;7.30;;
8654;SDS011;13500;52.514;13.462;2023-07-29T05:29:04;7.57;;;6.97;;
8654;SDS011;13500;52.514;13.462;2023-07-29T05:31:33;7.80;;;7.13;;
8654;SDS011;13500;52.514;13.462;2023-07-29T05:34:01;7.30;;;6.70;;
8654;SDS011;13500;52.514;13.462;2023-07-29T05:36:29;7.83;;;7.23;;
8654;SDS011;13500;52.514;13.462;2023-07-29T05:38:57;7.27;;;6.67;;
8654;SDS011;13500;52.514;13.462;2023-07-29T05:41:27;7.57;;;6.97;;
8654;SDS011;13500;52.514;13.462;2023-07-29T05:43:55;6.80;;;6.30;;
8654;SDS011;13500;52.514;13.462;2023-07-29T05:46:23;6.97;;;6.10;;
8654;SDS011;13500;52.514;13.462;2023-07-29T05:48:51;6.87;;;6.27;;
8654;SDS011;13500;52.514;13.462;2023-07-29T05:51:19;6.90;;;6.20;;
8654;SDS011;13500;52.514;13.462;2023-07-29T05:53:47;6.87;;;6.27;;
8654;SDS011;13500;52.514;13.462;2023-07-29T05:56:15;6.40;;;5.90;;
8654;SDS011;13500;52.514;13.462;2023-07-29T05:58:45;6.20;;;5.73;;
8654;SDS011;13500;52.514;13.462;2023-07-29T06:01:13;5.97;;;5.47;;
8654;SDS011;13500;52.514;13.462;2023-07-29T06:03:41;6.03;;;5.53;;
8654;SDS011;13500;52.514;13.462;2023-07-29T06:06:09;5.60;;;5.20;;
8654;SDS011;13500;52.514;13.462;2023-07-29T06:08:37;6.03;;;5.63;;
8654;SDS011;13500;52.514;13.462;2023-07-29T06:11:05;6.07;;;5.47;;
8654;SDS011;13500;52.514;13.462;2023-07-29T06:13:33;5.60;;;5.20;;
8654;SDS011;13500;52.514;13.462;2023-07-29T06:16:03;5.87;;;5.30;;
8654;SDS011;13500;52.514;13.462;2023-07-29T06:18:31;5.60;;;5.10;;
8654;SDS011;13500;52.514;13.462;2023-07-29T06:20:59;6.83;;;5.70;;
8654;SDS011;13500;52.514;13.462;2023-07-29T06:23:27;5.43;;;4.97;;
8654;SDS011;13500;52.514;13.462;2023-07-29T06:25:55;6.13;;;5.60;;
8654;SDS011;13500;52.514;13.462;2023-07-29T06:28:23;5.43;;;4.87;;
8654;SDS011;13500;52.514;13.462;2023-07-29T06:30:51;5.57;;;4.63;;
8654;SDS011;13500;52.514;13.462;2023-07-29T06:33:21;5.30;;;4.90;;
8654;SDS011;13500;52.514;13.462;2023-07-29T06:35:49;5.47;;;4.97;;
8654;SDS011;13500;52.514;13.462;2023-07-29T06:38:17;5.17;;;4.67;;
8654;SDS011;13500;52.514;13.462;2023-07-29T06:40:48;5.70;;;5.10;;
8654;SDS011;13500;52.514;13.462;2023-07-29T06:43:16;5.20;;;4.80;;
8654;SDS011;13500;52.514;13.462;2023-07-29T06:45:44;5.17;;;4.67;;
8654;SDS011;13500;52.514;13.462;2023-07-29T06:48:12;5.40;;;4.90;;
8654;SDS011;13500;52.514;13.462;2023-07-29T06:50:41;5.70;;;5.10;;
8654;SDS011;13500;52.514;13.462;2023-07-29T06:53:09;4.73;;;4.17;;
8654;SDS011;13500;52.514;13.462;2023-07-29T06:55:38;5.13;;;4.73;;
8654;SDS011;13500;52.514;13.462;2023-07-29T06:58:06;4.97;;;4.47;;
8654;SDS011;13500;52.514;13.462;2023-07-29T07:00:34;4.60;;;4.20;;
8654;SDS011;13500;52.514;13.462;2023-07-29T07:03:02;4.97;;;4.57;;
8654;SDS011;13500;52.514;13.462;2023-07-29T07:05:30;6.33;;;4.67;;
8654;SDS011;13500;52.514;13.462;2023-07-29T07:07:59;4.83;;;4.43;;
8654;SDS011;13500;52.514;13.462;2023-07-29T07:10:28;4.27;;;3.93;;
8654;SDS011;13500;52.514;13.462;2023-07-29T07:12:56;6.00;;;3.93;;
8654;SDS011;13500;52.514;13.462;2023-07-29T07:15:25;4.90;;;4.47;;
8654;SDS011;13500;52.514;13.462;2023-07-29T07:17:52;4.90;;;4.50;;
8654;SDS011;13500;52.514;13.462;2023-07-29T07:20:21;4.60;;;4.20;;
8654;SDS011;13500;52.514;13.462;2023-07-29T07:22:49;4.57;;;4.27;;
8654;SDS011;13500;52.514;13.462;2023-07-29T07:25:18;5.27;;;4.73;;
8654;SDS011;13500;52.514;13.462;2023-07-29T07:27:46;5.83;;;4.40;;
8654;SDS011;13500;52.514;13.462;2023-07-29T07:30:15;6.67;;;4.73;;
8654;SDS011;13500;52.514;13.462;2023-07-29T07:32:42;5.07;;;4.50;;
8654;SDS011;13500;52.514;13.462;2023-07-29T07:35:11;4.95;;;4.50;;
8654;SDS011;13500;52.514;13.462;2023-07-29T07:37:40;4.70;;;4.30;;
8654;SDS011;13500;52.514;13.462;2023-07-29T07:40:08;4.60;;;4.30;;
8654;SDS011;13500;52.514;13.462;2023-07-29T07:42:38;4.67;;;4.27;;
8654;SDS011;13500;52.514;13.462;2023-07-29T07:45:06;5.07;;;4.27;;
8654;SDS011;13500;52.514;13.462;2023-07-29T07:47:34;4.27;;;3.87;;
8654;SDS011;13500;52.514;13.462;2023-07-29T07:50:02;5.10;;;4.67;;
8654;SDS011;13500;52.514;13.462;2023-07-29T07:52:30;4.33;;;4.00;;
8654;SDS011;13500;52.514;13.462;2023-07-29T07:54:59;4.37;;;3.90;;
8654;SDS011;13500;52.514;13.462;2023-07-29T07:57:26;4.13;;;3.83;;
8654;SDS011;13500;52.514;13.462;2023-07-29T07:59:56;3.93;;;3.63;;
8654;SDS011;13500;52.514;13.462;2023-07-29T08:02:24;3.97;;;3.67;;
8654;SDS011;13500;52.514;13.462;2023-07-29T08:04:52;4.40;;;4.10;;
8654;SDS011;13500;52.514;13.462;2023-07-29T08:07:20;3.90;;;3.60;;
8654;SDS011;13500;52.514;13.462;2023-07-29T08:09:48;4.10;;;3.80;;
8654;SDS011;13500;52.514;13.462;2023-07-29T08:12:16;5.90;;;3.77;;
8654;SDS011;13500;52.514;13.462;2023-07-29T08:14:52;5.70;;;3.57;;
8654;SDS011;13500;52.514;13.462;2023-07-29T08:17:31;4.67;;;3.83;;
8654;SDS011;13500;52.514;13.462;2023-07-29T08:19:59;3.70;;;3.40;;
8654;SDS011;13500;52.514;13.462;2023-07-29T08:22:27;3.47;;;3.20;;
8654;SDS011;13500;52.514;13.462;2023-07-29T08:24:55;3.67;;;3.20;;
8654;SDS011;13500;52.514;13.462;2023-07-29T08:27:23;4.70;;;3.20;;
8654;SDS011;13500;52.514;13.462;2023-07-29T08:29:51;4.90;;;3.40;;
8654;SDS011;13500;52.514;13.462;2023-07-29T08:32:20;2.97;;;2.77;;
8654;SDS011;13500;52.514;13.462;2023-07-29T08:34:48;3.60;;;3.30;;
8654;SDS011;13500;52.514;13.462;2023-07-29T08:37:16;3.77;;;3.47;;
8654;SDS011;13500;52.514;13.462;2023-07-29T08:39:44;3.63;;;3.40;;
8654;SDS011;13500;52.514;13.462;2023-07-29T08:42:12;3.70;;;3.30;;
8654;SDS011;13500;52.514;13.462;2023-07-29T08:44:41;4.10;;;3.07;;
8654;SDS011;13500;52.514;13.462;2023-07-29T08:47:09;2.97;;;2.77;;
8654;SDS011;13500;52.514;13.462;2023-07-29T08:49:39;3.20;;;3.00;;
8654;SDS011;13500;52.514;13.462;2023-07-29T08:52:08;4.50;;;2.93;;
8654;SDS011;13500;52.514;13.462;2023-07-29T08:54:37;3.20;;;2.90;;
8654;SDS011;13500;52.514;13.462;2023-07-29T08:57:05;3.37;;;3.17;;
8654;SDS011;13500;52.514;13.462;2023-07-29T08:59:34;3.90;;;3.50;;
8654;SDS011;13500;52.514;13.462;2023-07-29T09:02:02;3.57;;;3.27;;
8654;SDS011;13500;52.514;13.462;2023-07-29T09:04:30;3.40;;;3.10;;
8654;SDS011;13500;52.514;13.462;2023-07-29T09:06:59;3.37;;;2.90;;
8654;SDS011;13500;52.514;13.462;2023-07-29T09:09:28;3.37;;;3.07;;
8654;SDS011;13500;52.514;13.462;2023-07-29T09:11:56;3.47;;;2.90;;
8654;SDS011;13500;52.514;13.462;2023-07-29T09:14:24;4.17;;;3.00;;
8654;SDS011;13500;52.514;13.462;2023-07-29T09:16:52;3.47;;;3.17;;
8654;SDS011;13500;52.514;13.462;2023-07-29T09:19:21;3.30;;;3.10;;
8654;SDS011;13500;52.514;13.462;2023-07-29T09:21:52;3.90;;;3.30;;
8654;SDS011;13500;52.514;13.462;2023-07-29T09:24:22;3.23;;;3.00;;
8654;SDS011;13500;52.514;13.462;2023-07-29T09:26:50;3.37;;;3.07;;
8654;SDS011;13500;52.514;13.462;2023-07-29T09:29:21;3.73;;;3.43;;
8654;SDS011;13500;52.514;13.462;2023-07-29T09:31:50;3.70;;;3.43;;
8654;SDS011;13500;52.514;13.462;2023-07-29T09:34:18;5.03;;;2.97;;
8654;SDS011;13500;52.514;13.462;2023-07-29T09:36:46;3.30;;;3.00;;
8654;SDS011;13500;52.514;13.462;2023-07-29T09:39:14;3.60;;;3.30;;
8654;SDS011;13500;52.514;13.462;2023-07-29T09:41:46;3.40;;;3.10;;
8654;SDS011;13500;52.514;13.462;2023-07-29T09:44:15;3.00;;;2.80;;
8654;SDS011;13500;52.514;13.462;2023-07-29T09:46:45;3.40;;;3.20;;
8654;SDS011;13500;52.514;13.462;2023-07-29T09:49:14;3.43;;;2.90;;
8654;SDS011;13500;52.514;13.462;2023-07-29T09:51:42;3.10;;;2.90;;
8654;SDS011;13500;52.514;13.462;2023-07-29T09:54:10;3.20;;;3.00;;
8654;SDS011;13500;52.514;13.462;2023-07-29T09:56:41;3.07;;;2.87;;
8654;SDS011;13500;52.514;13.462;2023-07-29T09:59:12;2.90;;;2.70;;
8654;SDS011;13500;52.514;13.462;2023-07-29T10:01:40;3.57;;;2.70;;
8654;SDS011;13500;52.514;13.462;2023-07-29T10:04:08;2.83;;;2.63;;
8654;SDS011;13500;52.514;13.462;2023-07-29T10:06:39;3.27;;;2.67;;
8654;SDS011;13500;52.514;13.462;2023-07-29T10:09:07;2.67;;;2.47;;
8654;SDS011;13500;52.514;13.462;2023-07-29T10:11:36;2.50;;;2.30;;
8654;SDS011;13500;52.514;13.462;2023-07-29T10:14:05;4.10;;;2.70;;
8654;SDS011;13500;52.514;13.462;2023-07-29T10:16:37;3.07;;;2.77;;
8654;SDS011;13500;52.514;13.462;2023-07-29T10:19:06;2.80;;;2.50;;
8654;SDS011;13500;52.514;13.462;2023-07-29T10:21:35;2.30;;;2.20;;
8654;SDS011;13500;52.514;13.462;2023-07-29T10:24:05;2.70;;;2.50;;
8654;SDS011;13500;52.514;13.462;2023-07-29T10:26:35;2.33;;;2.20;;
8654;SDS011;13500;52.514;13.462;2023-07-29T10:29:05;3.40;;;2.50;;
8654;SDS011;13500;52.514;13.462;2023-07-29T10:31:36;2.43;;;2.13;;
8654;SDS011;13500;52.514;13.462;2023-07-29T10:34:05;3.60;;;3.30;;
8654;SDS011;13500;52.514;13.462;2023-07-29T10:36:33;2.60;;;2.40;;
8654;SDS011;13500;52.514;13.462;2023-07-29T10:39:02;3.47;;;2.47;;
8654;SDS011;13500;52.514;13.462;2023-07-29T10:47:21;2.80;;;2.60;;
8654;SDS011;13500;52.514;13.462;2023-07-29T10:49:51;3.00;;;2.50;;
8654;SDS011;13500;52.514;13.462;2023-07-29T10:52:28;2.40;;;2.20;;
8654;SDS011;13500;52.514;13.462;2023-07-29T10:54:58;2.50;;;2.30;;
8654;SDS011;13500;52.514;13.462;2023-07-29T10:57:35;2.93;;;2.03;;
8654;SDS011;13500;52.514;13.462;2023-07-29T11:00:07;2.43;;;2.20;;
8654;SDS011;13500;52.514;13.462;2023-07-29T11:02:37;2.73;;;2.27;;
8654;SDS011;13500;52.514;13.462;2023-07-29T11:05:06;3.03;;;2.00;;
8654;SDS011;13500;52.514;13.462;2023-07-29T11:07:44;2.80;;;2.20;;
8654;SDS011;13500;52.514;13.462;2023-07-29T11:10:13;2.40;;;2.20;;
8654;SDS011;13500;52.514;13.462;2023-07-29T11:12:43;2.50;;;2.30;;
8654;SDS011;13500;52.514;13.462;2023-07-29T11:15:14;2.63;;;2.37;;
8654;SDS011;13500;52.514;13.462;2023-07-29T11:17:45;2.77;;;2.57;;
8654;SDS011;13500;52.514;13.462;2023-07-29T11:20:15;2.87;;;2.43;;
8654;SDS011;13500;52.514;13.462;2023-07-29T11:22:43;2.30;;;2.10;;
8654;SDS011;13500;52.514;13.462;2023-07-29T11:25:12;6.57;;;2.03;;
8654;SDS011;13500;52.514;13.462;2023-07-29T11:27:41;10.60;;;2.50;;
8654;SDS011;13500;52.514;13.462;2023-07-29T11:30:10;2.17;;;1.83;;
8654;SDS011;13500;52.514;13.462;2023-07-29T11:32:40;5.67;;;2.97;;
8654;SDS011;13500;52.514;13.462;2023-07-29T11:35:11;4.07;;;2.93;;
8654;SDS011;13500;52.514;13.462;2023-07-29T11:37:41;4.53;;;3.17;;
8654;SDS011;13500;52.514;13.462;2023-07-29T11:40:13;3.93;;;3.20;;
8654;SDS011;13500;52.514;13.462;2023-07-29T11:42:42;4.77;;;3.50;;
8654;SDS011;13500;52.514;13.462;2023-07-29T11:45:10;6.73;;;4.80;;
8654;SDS011;13500;52.514;13.462;2023-07-29T11:47:39;3.77;;;2.67;;
8654;SDS011;13500;52.514;13.462;2023-07-29T11:50:11;3.90;;;2.63;;
8654;SDS011;13500;52.514;13.462;2023-07-29T11:52:41;3.57;;;2.17;;
8654;SDS011;13500;52.514;13.462;2023-07-29T11:55:11;3.10;;;2.47;;
8654;SDS011;13500;52.514;13.462;2023-07-29T11:57:40;2.53;;;2.30;;
8654;SDS011;13500;52.514;13.462;2023-07-29T12:00:10;3.30;;;2.50;;
8654;SDS011;13500;52.514;13.462;2023-07-29T12:02:40;3.87;;;2.20;;
8654;SDS011;13500;52.514;13.462;2023-07-29T12:05:12;2.40;;;1.80;;
8654;SDS011;13500;52.514;13.462;2023-07-29T12:07:42;3.50;;;2.40;;
8654;SDS011;13500;52.514;13.462;2023-07-29T12:10:10;2.70;;;2.17;;
8654;SDS011;13500;52.514;13.462;2023-07-29T12:12:40;3.97;;;2.53;;
8654;SDS011;13500;52.514;13.462;2023-07-29T12:15:12;5.00;;;3.10;;
8654;SDS011;13500;52.514;13.462;2023-07-29T12:17:40;4.77;;;4.13;;
8654;SDS011;13500;52.514;13.462;2023-07-29T12:20:11;3.33;;;2.92;;
8654;SDS011;13500;52.514;13.462;2023-07-29T12:22:39;4.03;;;3.40;;
8654;SDS011;13500;52.514;13.462;2023-07-29T12:25:07;3.37;;;3.07;;
8654;SDS011;13500;52.514;13.462;2023-07-29T12:27:35;3.30;;;3.00;;
8654;SDS011;13500;52.514;13.462;2023-07-29T12:30:05;3.37;;;3.03;;
8654;SDS011;13500;52.514;13.462;2023-07-29T12:32:33;3.00;;;2.70;;
8654;SDS011;13500;52.514;13.462;2023-07-29T12:35:12;4.33;;;3.10;;
8654;SDS011;13500;52.514;13.462;2023-07-29T12:37:40;3.90;;;2.83;;
8654;SDS011;13500;52.514;13.462;2023-07-29T12:40:20;3.27;;;2.83;;
8654;SDS011;13500;52.514;13.462;2023-07-29T12:42:49;4.00;;;3.50;;
8654;SDS011;13500;52.514;13.462;2023-07-29T12:45:18;4.43;;;3.27;;
8654;SDS011;13500;52.514;13.462;2023-07-29T12:47:49;3.53;;;3.00;;
8654;SDS011;13500;52.514;13.462;2023-07-29T12:50:19;3.30;;;3.00;;
8654;SDS011;13500;52.514;13.462;2023-07-29T12:52:47;3.60;;;3.07;;
8654;SDS011;13500;52.514;13.462;2023-07-29T12:55:15;3.53;;;2.80;;
8654;SDS011;13500;52.514;13.462;2023-07-29T12:57:49;3.27;;;2.60;;
8654;SDS011;13500;52.514;13.462;2023-07-29T13:00:17;2.50;;;2.30;;
8654;SDS011;13500;52.514;13.462;2023-07-29T13:02:45;2.33;;;2.07;;
8654;SDS011;13500;52.514;13.462;2023-07-29T13:05:13;5.37;;;2.80;;
8654;SDS011;13500;52.514;13.462;2023-07-29T13:07:43;3.97;;;2.83;;
8654;SDS011;13500;52.514;13.462;2023-07-29T13:10:11;2.53;;;2.30;;
8654;SDS011;13500;52.514;13.462;2023-07-29T13:12:39;2.33;;;2.13;;
8654;SDS011;13500;52.514;13.462;2023-07-29T13:15:08;2.57;;;2.37;;
8654;SDS011;13500;52.514;13.462;2023-07-29T13:17:36;4.53;;;2.60;;
8654;SDS011;13500;52.514;13.462;2023-07-29T13:20:06;3.23;;;2.93;;
8654;SDS011;13500;52.514;13.462;2023-07-29T13:22:35;2.97;;;2.67;;
8654;SDS011;13500;52.514;13.462;2023-07-29T13:25:04;2.80;;;2.50;;
8654;SDS011;13500;52.514;13.462;2023-07-29T13:27:32;3.07;;;2.60;;
8654;SDS011;13500;52.514;13.462;2023-07-29T13:30:00;3.00;;;2.70;;
8654;SDS011;13500;52.514;13.462;2023-07-29T13:32:28;2.73;;;2.50;;
8654;SDS011;13500;52.514;13.462;2023-07-29T13:34:56;2.87;;;2.47;;
8654;SDS011;13500;52.514;13.462;2023-07-29T13:37:24;3.70;;;2.50;;
8654;SDS011;13500;52.514;13.462;2023-07-29T13:39:52;2.57;;;2.37;;
8654;SDS011;13500;52.514;13.462;2023-07-29T13:42:22;4.07;;;2.27;;
8654;SDS011;13500;52.514;13.462;2023-07-29T13:44:50;2.50;;;2.30;;
8654;SDS011;13500;52.514;13.462;2023-07-29T13:47:18;2.80;;;2.50;;
8654;SDS011;13500;52.514;13.462;2023-07-29T13:49:46;2.00;;;1.90;;
8654;SDS011;13500;52.514;13.462;2023-07-29T13:52:14;2.37;;;2.17;;
8654;SDS011;13500;52.514;13.462;2023-07-29T13:54:42;2.30;;;2.10;;
8654;SDS011;13500;52.514;13.462;2023-07-29T13:57:10;3.40;;;2.00;;
8654;SDS011;13500;52.514;13.462;2023-07-29T13:59:39;2.20;;;2.00;;
8654;SDS011;13500;52.514;13.462;2023-07-29T14:02:07;2.93;;;2.10;;
8654;SDS011;13500;52.514;13.462;2023-07-29T14:04:35;1.73;;;1.63;;
8654;SDS011;13500;52.514;13.462;2023-07-29T14:07:03;2.97;;;2.07;;
8654;SDS011;13500;52.514;13.462;2023-07-29T14:09:32;1.97;;;1.80;;
8654;SDS011;13500;52.514;13.462;2023-07-29T14:12:00;1.70;;;1.60;;
8654;SDS011;13500;52.514;13.462;2023-07-29T14:14:28;3.03;;;1.97;;
8654;SDS011;13500;52.514;13.462;2023-07-29T14:16:57;1.83;;;1.73;;
8654;SDS011;13500;52.514;13.462;2023-07-29T14:19:25;1.60;;;1.50;;
8654;SDS011;13500;52.514;13.462;2023-07-29T14:21:53;2.30;;;2.10;;
8654;SDS011;13500;52.514;13.462;2023-07-29T14:24:21;1.70;;;1.60;;
8654;SDS011;13500;52.514;13.462;2023-07-29T14:26:50;2.07;;;1.70;;
8654;SDS011;13500;52.514;13.462;2023-07-29T14:29:18;2.67;;;1.67;;
8654;SDS011;13500;52.514;13.462;2023-07-29T14:31:46;1.90;;;1.60;;
8654;SDS011;13500;52.514;13.462;2023-07-29T14:34:15;1.93;;;1.63;;
8654;SDS011;13500;52.514;13.462;2023-07-29T14:36:43;1.83;;;1.60;;
8654;SDS011;13500;52.514;13.462;2023-07-29T14:39:11;1.60;;;1.50;;
8654;SDS011;13500;52.514;13.462;2023-07-29T14:41:39;1.93;;;1.83;;
8654;SDS011;13500;52.514;13.462;2023-07-29T14:44:07;2.53;;;2.33;;
8654;SDS011;13500;52.514;13.462;2023-07-29T14:46:35;2.30;;;2.00;;
8654;SDS011;13500;52.514;13.462;2023-07-29T14:49:04;1.90;;;1.80;;
8654;SDS011;13500;52.514;13.462;2023-07-29T14:51:33;1.93;;;1.83;;
8654;SDS011;13500;52.514;13.462;2023-07-29T14:54:01;2.37;;;1.80;;
8654;SDS011;13500;52.514;13.462;2023-07-29T14:56:29;3.03;;;1.90;;
8654;SDS011;13500;52.514;13.462;2023-07-29T14:58:57;2.47;;;1.70;;